createdAt,value
2019-05-17T00:04:03.167Z,5.67
2019-05-17T00:09:08.922Z,5.70
2019-05-17T00:14:16.624Z,5.73
2019-05-17T00:19:21.089Z,5.30
2019-05-17T00:24:26.650Z,5.53
2019-05-17T00:29:32.105Z,5.67
2019-05-17T00:34:37.847Z,6.60
2019-05-17T00:39:43.235Z,6.50
2019-05-17T00:44:48.286Z,6.60
2019-05-17T00:49:53.598Z,7.20
2019-05-17T00:54:58.711Z,6.63
2019-05-17T01:00:04.293Z,6.40
2019-05-17T01:05:09.834Z,6.10
2019-05-17T01:10:16.621Z,6.03
2019-05-17T01:20:39.896Z,6.27
2019-05-17T01:25:45.264Z,6.50
2019-05-17T01:30:50.598Z,6.20
2019-05-17T01:35:57.338Z,6.83
2019-05-17T01:41:02.856Z,6.67
2019-05-17T01:46:08.140Z,6.27
2019-05-17T01:51:13.546Z,7.10
2019-05-17T01:56:18.819Z,7.60
2019-05-17T02:01:24.030Z,7.03
2019-05-17T02:06:29.338Z,7.40
2019-05-17T02:11:46.706Z,7.03
2019-05-17T02:16:52.019Z,7.57
2019-05-17T02:21:57.234Z,6.50
2019-05-17T02:27:02.559Z,6.83
2019-05-17T02:32:07.936Z,8.00
2019-05-17T02:37:13.729Z,7.20
2019-05-17T02:42:22.299Z,6.93
2019-05-17T02:47:26.120Z,7.30
2019-05-17T02:52:33.041Z,7.63
2019-05-17T02:57:38.466Z,7.93
2019-05-17T03:02:44.090Z,8.43
2019-05-17T03:07:52.597Z,7.40
2019-05-17T03:12:56.439Z,7.10
2019-05-17T03:18:03.689Z,7.80
2019-05-17T03:23:08.499Z,8.43
2019-05-17T03:28:13.685Z,8.17
2019-05-17T03:33:19.222Z,9.27
2019-05-17T03:38:24.579Z,7.33
2019-05-17T03:43:29.900Z,7.10
2019-05-17T03:48:35.130Z,7.97
2019-05-17T03:53:43.877Z,7.33
2019-05-17T03:58:53.054Z,8.47
2019-05-17T04:03:58.511Z,7.30
2019-05-17T04:09:05.544Z,9.50
2019-05-17T04:14:13.967Z,9.77
2019-05-17T04:19:17.722Z,9.53
2019-05-17T04:24:23.337Z,9.47
2019-05-17T04:29:28.828Z,9.50
2019-05-17T04:34:34.141Z,7.87
2019-05-17T04:39:39.356Z,9.67
2019-05-17T04:44:44.493Z,8.87
2019-05-17T04:49:53.300Z,9.70
2019-05-17T04:54:56.713Z,11.50
2019-05-17T05:00:04.165Z,10.83
2019-05-17T05:05:09.053Z,11.83
2019-05-17T05:10:14.868Z,11.13
2019-05-17T05:15:25.813Z,10.87
2019-05-17T05:20:32.548Z,11.07
2019-05-17T05:25:37.963Z,11.37
2019-05-17T05:30:43.146Z,11.30
2019-05-17T05:35:48.406Z,11.77
2019-05-17T05:40:53.839Z,11.77
2019-05-17T05:45:59.113Z,11.03
2019-05-17T05:51:05.231Z,12.50
2019-05-17T05:56:13.383Z,12.67
2019-05-17T06:01:18.940Z,14.90
2019-05-17T06:06:24.177Z,13.63
2019-05-17T06:11:32.070Z,14.00
2019-05-17T06:16:36.682Z,15.60
2019-05-17T06:21:42.696Z,16.37
2019-05-17T06:26:48.119Z,17.00
2019-05-17T06:31:53.759Z,18.93
2019-05-17T06:36:59.055Z,18.73
2019-05-17T06:42:04.500Z,18.30
2019-05-17T06:47:11.943Z,18.27
2019-05-17T06:52:16.665Z,17.13
2019-05-17T06:57:23.309Z,14.37
2019-05-17T07:02:30.886Z,13.40
2019-05-17T07:07:36.071Z,13.40
2019-05-17T07:12:54.858Z,13.77
2019-05-17T07:17:50.427Z,13.77
2019-05-17T07:22:55.557Z,13.17
2019-05-17T07:28:00.855Z,16.07
2019-05-17T07:33:06.261Z,12.83
2019-05-17T07:38:11.491Z,12.30
2019-05-17T07:43:16.855Z,11.87
2019-05-17T07:48:22.151Z,11.07
2019-05-17T07:53:27.527Z,9.67
2019-05-17T07:58:33.014Z,9.90
2019-05-17T08:03:40.363Z,11.40
2019-05-17T08:08:45.222Z,10.37
2019-05-17T08:13:50.672Z,11.27
2019-05-17T08:18:55.922Z,10.23
2019-05-17T08:24:01.286Z,10.03
2019-05-17T08:29:06.492Z,10.20
2019-05-17T08:34:11.816Z,7.77
2019-05-17T08:39:19.477Z,8.03
2019-05-17T08:44:24.230Z,7.83
2019-05-17T08:49:29.664Z,7.77
2019-05-17T08:54:34.781Z,7.93
2019-05-17T08:59:40.633Z,9.10
2019-05-17T09:04:45.989Z,6.20
2019-05-17T09:09:51.292Z,6.40
2019-05-17T09:14:56.441Z,6.60
2019-05-17T09:20:01.762Z,6.10
2019-05-17T09:25:07.263Z,6.00
2019-05-17T09:30:16.527Z,5.03
2019-05-17T09:35:21.766Z,5.20
2019-05-17T09:40:29.238Z,4.77
2019-05-17T09:45:34.402Z,6.00
2019-05-17T09:50:40.114Z,4.97
2019-05-17T09:55:45.591Z,4.50
2019-05-17T10:00:51.742Z,5.20
2019-05-17T10:05:57.322Z,5.87
2019-05-17T10:11:08.396Z,5.73
2019-05-17T10:16:10.792Z,5.80
2019-05-17T10:21:25.860Z,5.73
2019-05-17T10:26:31.247Z,5.77
2019-05-17T10:31:36.495Z,6.47
2019-05-17T10:36:41.712Z,5.97
2019-05-17T10:41:46.934Z,6.27
2019-05-17T10:46:52.647Z,6.57
2019-05-17T10:51:59.876Z,6.70
2019-05-17T10:57:04.956Z,6.63
2019-05-17T11:02:10.555Z,7.20
2019-05-17T11:07:15.930Z,6.57
2019-05-17T11:12:21.423Z,8.13
2019-05-17T11:17:26.671Z,6.53
2019-05-17T11:22:31.851Z,6.10
2019-05-17T11:27:50.465Z,6.40
2019-05-17T11:32:55.762Z,7.10
2019-05-17T11:38:01.091Z,6.80
2019-05-17T11:43:06.302Z,6.47
2019-05-17T11:48:11.586Z,6.83
2019-05-17T11:53:17.143Z,6.73
2019-05-17T11:58:22.490Z,7.27
2019-05-17T12:03:28.143Z,6.83
2019-05-17T12:08:41.822Z,6.77
2019-05-17T12:13:47.395Z,7.47
2019-05-17T12:18:52.791Z,7.27
2019-05-17T12:23:58.166Z,6.70
2019-05-17T12:29:03.416Z,8.17
2019-05-17T12:34:08.590Z,7.17
2019-05-17T12:39:13.979Z,7.27
2019-05-17T12:44:19.346Z,6.87
2019-05-17T12:49:24.677Z,7.20
2019-05-17T12:54:29.923Z,7.37
2019-05-17T12:59:35.272Z,7.80
2019-05-17T13:04:40.727Z,8.57
2019-05-17T13:09:46.487Z,9.10
2019-05-17T13:14:51.827Z,13.87
2019-05-17T13:19:57.211Z,10.13
2019-05-17T13:25:02.608Z,9.80
2019-05-17T13:30:08.107Z,9.27
2019-05-17T13:35:13.543Z,9.63
2019-05-17T13:40:18.915Z,10.20
2019-05-17T13:45:24.207Z,9.00
2019-05-17T13:50:29.516Z,9.90
2019-05-17T13:55:35.082Z,8.23
2019-05-17T14:00:40.300Z,8.83
2019-05-17T14:05:46.615Z,7.90
2019-05-17T14:10:51.833Z,7.90
2019-05-17T14:15:57.177Z,7.20
2019-05-17T14:21:02.479Z,7.20
2019-05-17T14:26:07.934Z,8.70
2019-05-17T14:31:13.276Z,8.43
2019-05-17T14:36:18.751Z,9.20
2019-05-17T14:41:24.090Z,7.67
2019-05-17T14:46:29.517Z,7.53
2019-05-17T14:51:34.721Z,6.60
2019-05-17T14:56:39.971Z,6.73
2019-05-17T15:01:45.507Z,7.33
2019-05-17T15:06:52.238Z,6.67
2019-05-17T15:11:57.477Z,7.07
2019-05-17T15:17:02.777Z,7.27
2019-05-17T15:22:08.000Z,8.03
2019-05-17T15:27:13.592Z,6.93
2019-05-17T15:32:19.033Z,7.37
2019-05-17T15:37:24.314Z,8.60
2019-05-17T15:42:43.264Z,8.47
2019-05-17T15:47:36.483Z,7.43
2019-05-17T15:52:41.761Z,7.17
2019-05-17T15:57:47.039Z,7.20
2019-05-17T16:02:52.411Z,6.50
2019-05-17T16:07:57.790Z,6.83
2019-05-17T16:13:03.748Z,7.07
2019-05-17T16:18:09.156Z,7.40
2019-05-17T16:23:14.432Z,7.00
2019-05-17T16:28:19.766Z,6.53
2019-05-17T16:33:25.002Z,7.33
2019-05-17T16:38:30.422Z,9.30
2019-05-17T16:43:35.748Z,11.33
2019-05-17T16:48:41.143Z,10.43
2019-05-17T16:53:46.770Z,9.40
2019-05-17T16:58:52.185Z,9.30
2019-05-17T17:03:57.657Z,10.13
2019-05-17T17:09:03.174Z,10.63
2019-05-17T17:14:08.421Z,10.47
2019-05-17T17:19:13.768Z,10.00
2019-05-17T17:24:19.155Z,11.23
2019-05-17T17:29:24.437Z,11.37
2019-05-17T17:34:29.872Z,11.13
2019-05-17T17:39:35.306Z,10.53
2019-05-17T17:44:40.760Z,10.90
2019-05-17T17:49:46.106Z,11.53
2019-05-17T17:54:51.890Z,11.40
2019-05-17T17:59:57.199Z,10.53
2019-05-17T18:05:02.594Z,11.40
2019-05-17T18:10:08.936Z,11.63
2019-05-17T18:15:14.331Z,11.93
2019-05-17T18:20:20.068Z,9.50
2019-05-17T18:25:25.356Z,11.20
2019-05-17T18:30:30.943Z,10.67
2019-05-17T18:35:37.284Z,15.83
2019-05-17T18:40:42.632Z,23.17
2019-05-17T18:45:48.475Z,25.87
2019-05-17T18:50:54.035Z,15.27
2019-05-17T18:55:59.491Z,29.70
2019-05-17T19:01:05.012Z,66.07
2019-05-17T19:06:10.239Z,32.50
2019-05-17T19:11:15.786Z,51.67
2019-05-17T19:16:21.304Z,17.27
2019-05-17T19:21:26.864Z,18.90
2019-05-17T19:26:32.292Z,16.20
2019-05-17T19:31:37.704Z,15.10
2019-05-17T19:36:42.998Z,16.53
2019-05-17T19:41:48.568Z,15.40
2019-05-17T19:46:53.973Z,12.77
2019-05-17T19:51:59.315Z,26.03
2019-05-17T19:57:04.751Z,25.87
2019-05-17T20:02:10.491Z,12.67
2019-05-17T20:07:15.899Z,13.83
2019-05-17T20:12:21.431Z,13.33
2019-05-17T20:17:26.712Z,17.20
2019-05-17T20:22:32.017Z,11.73
2019-05-17T20:27:37.439Z,11.13
2019-05-17T20:32:42.851Z,18.47
2019-05-17T20:37:48.180Z,19.90
2019-05-17T20:42:53.518Z,32.57
2019-05-17T20:47:58.918Z,20.83
2019-05-17T20:53:18.049Z,12.10
2019-05-17T20:58:11.611Z,19.53
2019-05-17T21:03:16.813Z,11.17
2019-05-17T21:08:22.243Z,14.43
2019-05-17T21:13:27.631Z,13.63
2019-05-17T21:18:32.971Z,12.47
2019-05-17T21:23:38.251Z,12.90
2019-05-17T21:28:46.658Z,13.53
2019-05-17T21:33:50.678Z,12.03
2019-05-17T21:38:56.010Z,13.07
2019-05-17T21:44:01.383Z,11.43
2019-05-17T21:49:06.951Z,11.77
2019-05-17T21:54:12.427Z,12.27
2019-05-17T21:59:17.923Z,13.43
2019-05-17T22:04:26.737Z,12.37
2019-05-17T22:09:30.434Z,13.63
2019-05-17T22:14:35.911Z,13.83
2019-05-17T22:19:41.344Z,14.67
2019-05-17T22:24:46.643Z,14.77
2019-05-17T22:29:52.067Z,14.30
2019-05-17T22:34:57.306Z,14.87
2019-05-17T22:40:02.744Z,15.33
2019-05-17T22:45:08.211Z,16.17
2019-05-17T22:50:13.799Z,18.20
2019-05-17T22:55:19.511Z,18.03
2019-05-17T23:00:25.101Z,18.00
2019-05-17T23:05:30.406Z,18.73
2019-05-17T23:10:35.723Z,18.90
2019-05-17T23:15:49.063Z,19.57
2019-05-17T23:20:54.332Z,18.53
2019-05-17T23:25:59.692Z,18.57
2019-05-17T23:31:05.077Z,18.87
2019-05-17T23:36:10.451Z,19.13
2019-05-17T23:41:15.719Z,19.13
2019-05-17T23:46:21.000Z,17.00
2019-05-17T23:51:26.243Z,18.57
2019-05-17T23:56:31.859Z,20.00
